createdAt,value
2022-10-05T00:01:33.965Z,23.70
2022-10-05T00:04:26.621Z,23.70
2022-10-05T00:07:17.500Z,23.70
2022-10-05T00:09:55.698Z,23.80
2022-10-05T00:12:26.846Z,23.80
2022-10-05T00:15:02.098Z,23.80
2022-10-05T00:17:33.153Z,23.80
2022-10-05T00:20:03.367Z,23.80
2022-10-05T00:22:35.360Z,23.80
2022-10-05T00:25:16.737Z,23.80
2022-10-05T00:27:49.022Z,23.90
2022-10-05T00:30:24.449Z,23.90
2022-10-05T00:32:59.292Z,23.90
2022-10-05T00:35:30.941Z,24.00
2022-10-05T00:38:00.877Z,24.00
2022-10-05T00:40:41.064Z,24.00
2022-10-05T00:43:28.426Z,24.10
2022-10-05T00:46:12.834Z,24.20
2022-10-05T00:49:13.309Z,24.20
2022-10-05T00:51:51.926Z,24.30
2022-10-05T00:54:44.892Z,24.30
2022-10-05T00:57:53.542Z,24.30
2022-10-05T01:00:27.973Z,24.40
2022-10-05T01:03:33.858Z,24.40
2022-10-05T01:06:19.761Z,24.50
2022-10-05T01:09:12.579Z,24.50
2022-10-05T01:12:05.558Z,24.50
2022-10-05T01:15:07.535Z,24.60
2022-10-05T01:17:59.042Z,24.70
2022-10-05T01:20:47.457Z,24.70
2022-10-05T01:23:47.833Z,24.70
2022-10-05T01:26:45.721Z,24.80
2022-10-05T01:29:26.228Z,24.90
2022-10-05T01:32:22.265Z,24.90
2022-10-05T01:35:18.206Z,25.00
2022-10-05T01:38:17.858Z,25.10
2022-10-05T01:41:07.213Z,25.10
2022-10-05T01:43:50.137Z,25.20
2022-10-05T01:47:01.745Z,25.20
2022-10-05T01:49:48.063Z,25.30
2022-10-05T01:52:52.839Z,25.40
2022-10-05T01:55:50.935Z,25.40
2022-10-05T01:58:57.084Z,25.50
2022-10-05T02:01:46.899Z,25.50
2022-10-05T02:05:00.315Z,25.60
2022-10-05T02:07:47.473Z,25.60
2022-10-05T02:10:27.132Z,25.70
2022-10-05T02:13:02.868Z,25.80
2022-10-05T02:15:39.327Z,25.80
2022-10-05T02:18:23.708Z,25.80
2022-10-05T02:20:54.937Z,25.80
2022-10-05T02:23:29.001Z,25.90
2022-10-05T02:26:00.267Z,26.00
2022-10-05T02:28:45.089Z,26.00
2022-10-05T02:31:40.108Z,26.10
2022-10-05T02:34:31.354Z,26.10
2022-10-05T02:37:29.626Z,26.30
2022-10-05T02:40:38.286Z,26.40
2022-10-05T02:43:36.549Z,26.40
2022-10-05T02:46:35.497Z,26.50
2022-10-05T02:49:33.104Z,26.60
2022-10-05T02:52:41.734Z,26.70
2022-10-05T02:55:21.613Z,26.70
2022-10-05T02:58:05.648Z,26.80
2022-10-05T03:00:43.623Z,26.90
2022-10-05T03:03:19.735Z,26.90
2022-10-05T03:06:00.420Z,27.00
2022-10-05T03:08:48.915Z,27.10
2022-10-05T03:11:41.720Z,27.10
2022-10-05T03:14:41.392Z,27.20
2022-10-05T03:17:36.790Z,27.30
2022-10-05T03:20:36.164Z,27.30
2022-10-05T03:23:10.363Z,27.40
2022-10-05T03:26:19.140Z,27.40
2022-10-05T03:29:14.435Z,27.50
2022-10-05T03:32:09.286Z,27.60
2022-10-05T03:35:18.039Z,27.60
2022-10-05T03:38:23.755Z,27.60
2022-10-05T03:41:32.476Z,27.70
2022-10-05T03:44:41.175Z,27.80
2022-10-05T03:47:33.775Z,27.90
2022-10-05T03:50:19.158Z,27.90
2022-10-05T03:52:54.986Z,28.00
2022-10-05T03:55:47.923Z,28.00
2022-10-05T03:58:31.462Z,28.10
2022-10-05T04:01:08.347Z,28.20
2022-10-05T04:03:46.713Z,28.30
2022-10-05T04:06:26.869Z,28.40
2022-10-05T04:09:09.254Z,28.40
2022-10-05T04:12:01.360Z,28.40
2022-10-05T04:14:40.084Z,28.50
2022-10-05T04:17:18.698Z,28.50
2022-10-05T04:20:27.978Z,28.50
2022-10-05T04:23:19.131Z,28.50
2022-10-05T04:25:58.218Z,28.50
2022-10-05T04:28:55.043Z,28.50
2022-10-05T04:32:04.665Z,28.40
2022-10-05T04:35:13.342Z,28.40
2022-10-05T04:38:09.741Z,28.50
2022-10-05T04:41:09.196Z,28.40
2022-10-05T04:44:10.855Z,28.50
2022-10-05T04:47:19.478Z,28.50
2022-10-05T04:50:20.689Z,28.50
2022-10-05T04:53:31.376Z,28.50
2022-10-05T04:56:15.236Z,28.50
2022-10-05T04:59:23.989Z,28.60
2022-10-05T05:02:24.553Z,28.70
2022-10-05T05:05:33.361Z,28.70
2022-10-05T05:08:30.136Z,28.70
2022-10-05T05:11:24.456Z,28.70
2022-10-05T05:14:33.551Z,28.70
2022-10-05T05:17:26.174Z,28.70
2022-10-05T05:20:24.792Z,28.70
2022-10-05T05:23:33.432Z,28.80
2022-10-05T05:26:43.214Z,28.90
2022-10-05T05:29:42.085Z,28.90
2022-10-05T05:32:39.321Z,29.00
2022-10-05T05:35:40.412Z,29.00
2022-10-05T05:38:37.317Z,29.10
2022-10-05T05:41:43.432Z,29.20
2022-10-05T05:44:39.019Z,29.20
2022-10-05T05:47:39.302Z,29.30
2022-10-05T05:50:35.919Z,29.40
2022-10-05T05:53:29.085Z,29.40
2022-10-05T05:56:08.835Z,29.50
2022-10-05T05:59:05.604Z,29.50
2022-10-05T06:01:49.493Z,29.60
2022-10-05T06:04:31.041Z,29.70
2022-10-05T06:07:03.857Z,29.70
2022-10-05T06:09:58.713Z,29.80
2022-10-05T06:12:36.762Z,29.90
2022-10-05T06:15:37.001Z,29.90
2022-10-05T06:18:13.319Z,29.90
2022-10-05T06:20:48.845Z,29.80
2022-10-05T06:23:44.487Z,29.70
2022-10-05T06:26:53.166Z,29.70
2022-10-05T06:29:28.169Z,29.60
2022-10-05T06:32:16.906Z,29.70
2022-10-05T06:35:18.972Z,29.70
2022-10-05T06:38:19.135Z,29.70
2022-10-05T06:41:22.115Z,29.80
2022-10-05T06:44:16.642Z,29.80
2022-10-05T06:47:14.848Z,29.80
2022-10-05T06:50:13.518Z,29.80
2022-10-05T06:53:02.988Z,29.80
2022-10-05T06:56:11.724Z,29.80
2022-10-05T06:59:08.134Z,29.80
2022-10-05T07:02:16.922Z,29.90
2022-10-05T07:05:25.716Z,29.90
2022-10-05T07:08:08.949Z,30.00
2022-10-05T07:11:07.095Z,30.00
2022-10-05T07:14:05.366Z,30.10
2022-10-05T07:17:01.564Z,30.10
2022-10-05T07:19:51.015Z,30.10
2022-10-05T07:22:43.318Z,30.10
2022-10-05T07:25:38.207Z,30.20
2022-10-05T07:28:25.986Z,30.20
2022-10-05T07:31:31.456Z,30.20
2022-10-05T07:34:30.298Z,30.20
2022-10-05T07:37:27.142Z,30.20
2022-10-05T07:40:19.814Z,30.20
2022-10-05T07:43:35.965Z,30.20
2022-10-05T07:46:49.674Z,30.20
2022-10-05T07:49:53.924Z,30.30
2022-10-05T07:52:39.909Z,30.30
2022-10-05T07:55:28.290Z,30.30
2022-10-05T07:58:30.557Z,30.30
2022-10-05T08:01:25.244Z,30.30
2022-10-05T08:04:18.589Z,30.30
2022-10-05T08:07:03.777Z,30.30
2022-10-05T08:10:08.222Z,30.30
2022-10-05T08:13:03.102Z,30.30
2022-10-05T08:15:40.334Z,30.30
2022-10-05T08:18:38.953Z,30.30
2022-10-05T08:21:13.640Z,30.30
2022-10-05T08:24:22.328Z,30.30
2022-10-05T08:27:03.843Z,30.30
2022-10-05T08:30:10.722Z,30.30
2022-10-05T08:33:14.221Z,30.30
2022-10-05T08:35:48.068Z,30.30
2022-10-05T08:38:30.039Z,30.20
2022-10-05T08:41:28.355Z,30.30
2022-10-05T08:44:37.146Z,30.30
2022-10-05T08:47:45.816Z,30.30
2022-10-05T08:50:45.623Z,30.30
2022-10-05T08:53:54.303Z,30.30
2022-10-05T08:57:03.013Z,30.30
2022-10-05T09:00:12.432Z,30.30
2022-10-05T09:03:21.653Z,30.30
2022-10-05T09:06:30.393Z,30.20
2022-10-05T09:09:39.116Z,30.20
2022-10-05T09:12:47.772Z,30.20
2022-10-05T09:15:47.771Z,30.20
2022-10-05T09:18:53.534Z,30.20
2022-10-05T09:21:56.291Z,30.20
2022-10-05T09:24:31.280Z,30.10
2022-10-05T09:27:16.262Z,30.10
2022-10-05T09:30:08.396Z,30.10
2022-10-05T09:33:27.444Z,30.10
2022-10-05T09:36:39.133Z,30.10
2022-10-05T09:39:40.255Z,30.00
2022-10-05T09:42:42.084Z,30.00
2022-10-05T09:45:46.023Z,30.00
2022-10-05T09:48:54.682Z,29.90
2022-10-05T09:52:03.569Z,29.90
2022-10-05T09:55:03.343Z,29.80
2022-10-05T09:58:13.782Z,29.80
2022-10-05T10:01:33.325Z,29.70
2022-10-05T10:04:38.096Z,29.70
2022-10-05T10:07:46.789Z,29.60
2022-10-05T10:10:51.134Z,29.60
2022-10-05T10:14:01.849Z,29.50
2022-10-05T10:16:58.726Z,29.50
2022-10-05T10:20:04.931Z,29.40
2022-10-05T10:23:12.028Z,29.40
2022-10-05T10:26:20.802Z,29.30
2022-10-05T10:29:29.577Z,29.30
2022-10-05T10:32:26.638Z,29.20
2022-10-05T10:38:32.627Z,29.10
2022-10-05T10:41:29.336Z,29.00
2022-10-05T10:44:35.883Z,28.90
2022-10-05T10:47:37.646Z,28.80
2022-10-05T10:50:46.288Z,28.80
2022-10-05T10:53:49.969Z,28.70
2022-10-05T10:57:01.283Z,28.60
2022-10-05T11:00:01.639Z,28.60
2022-10-05T11:03:10.334Z,28.50
2022-10-05T11:06:19.042Z,28.40
2022-10-05T11:09:14.842Z,28.40
2022-10-05T11:12:19.464Z,28.30
2022-10-05T11:15:20.298Z,28.20
2022-10-05T11:18:23.324Z,28.20
2022-10-05T11:21:38.459Z,28.10
2022-10-05T11:24:47.277Z,28.10
2022-10-05T11:27:48.176Z,28.00
2022-10-05T11:30:51.205Z,27.90
2022-10-05T11:33:58.550Z,27.90
2022-10-05T11:36:57.245Z,27.80
2022-10-05T11:40:00.407Z,27.80
2022-10-05T11:42:58.517Z,27.70
2022-10-05T11:45:54.373Z,27.70
2022-10-05T11:49:03.210Z,27.60
2022-10-05T11:52:04.383Z,27.60
2022-10-05T11:55:13.306Z,27.50
2022-10-05T11:58:17.976Z,27.50
2022-10-05T12:00:58.760Z,27.40
2022-10-05T12:03:49.176Z,27.40
2022-10-05T12:06:58.440Z,27.40
2022-10-05T12:10:16.109Z,27.30
2022-10-05T12:13:11.933Z,27.30
2022-10-05T12:15:49.776Z,27.20
2022-10-05T12:18:41.132Z,27.20
2022-10-05T12:21:39.762Z,27.20
2022-10-05T12:24:41.850Z,27.10
2022-10-05T12:27:22.641Z,27.10
2022-10-05T12:30:16.945Z,27.00
2022-10-05T12:33:24.411Z,27.00
2022-10-05T12:35:57.305Z,27.00
2022-10-05T12:38:57.330Z,26.90
2022-10-05T12:41:44.095Z,26.90
2022-10-05T12:44:33.544Z,26.90
2022-10-05T12:47:31.810Z,26.90
2022-10-05T12:50:30.482Z,26.80
2022-10-05T12:53:26.695Z,26.80
2022-10-05T12:56:26.133Z,26.80
2022-10-05T12:59:34.996Z,26.70
2022-10-05T13:02:25.745Z,26.70
2022-10-05T13:05:19.633Z,26.70
2022-10-05T13:08:11.407Z,26.60
2022-10-05T13:10:50.309Z,26.60
2022-10-05T13:13:39.648Z,26.60
2022-10-05T13:16:43.049Z,26.50
2022-10-05T13:19:51.820Z,26.50
2022-10-05T13:22:37.681Z,26.50
2022-10-05T13:25:43.373Z,26.40
2022-10-05T13:28:23.882Z,26.40
2022-10-05T13:31:09.158Z,26.40
2022-10-05T13:34:10.276Z,26.40
2022-10-05T13:37:06.179Z,26.40
2022-10-05T13:40:14.986Z,26.30
2022-10-05T13:43:18.220Z,26.30
2022-10-05T13:46:05.591Z,26.30
2022-10-05T13:49:14.390Z,26.20
2022-10-05T13:52:23.887Z,26.30
2022-10-05T13:55:34.228Z,26.20
2022-10-05T13:58:43.038Z,26.20
2022-10-05T14:01:23.983Z,26.20
2022-10-05T14:04:20.065Z,26.10
2022-10-05T14:06:54.201Z,26.10
2022-10-05T14:09:36.576Z,26.10
2022-10-05T14:12:22.991Z,26.10
2022-10-05T14:15:00.777Z,26.10
2022-10-05T14:17:40.812Z,26.10
2022-10-05T14:20:33.123Z,26.10
2022-10-05T14:23:27.385Z,26.00
2022-10-05T14:25:57.905Z,26.00
2022-10-05T14:28:36.646Z,26.00
2022-10-05T14:31:30.658Z,26.00
2022-10-05T14:34:19.967Z,26.00
2022-10-05T14:37:11.771Z,25.90
2022-10-05T14:39:44.370Z,25.90
2022-10-05T14:42:21.159Z,25.90
2022-10-05T14:45:19.119Z,25.90
2022-10-05T14:48:11.721Z,25.80
2022-10-05T14:51:04.956Z,25.80
2022-10-05T14:53:59.729Z,25.80
2022-10-05T14:56:48.210Z,25.80
2022-10-05T14:59:57.046Z,25.80
2022-10-05T15:03:05.741Z,25.80
2022-10-05T15:05:46.936Z,25.80
2022-10-05T15:08:55.687Z,25.70
2022-10-05T15:11:53.346Z,25.70
2022-10-05T15:14:26.697Z,25.70
2022-10-05T15:17:04.188Z,25.70
2022-10-05T15:20:09.082Z,25.70
2022-10-05T15:22:52.658Z,25.70
2022-10-05T15:25:48.422Z,25.60
2022-10-05T15:28:56.080Z,25.60
2022-10-05T15:31:51.132Z,25.60
2022-10-05T15:34:41.198Z,25.60
2022-10-05T15:37:38.135Z,25.50
2022-10-05T15:40:25.268Z,25.50
2022-10-05T15:43:00.140Z,25.50
2022-10-05T15:45:44.386Z,25.50
2022-10-05T15:48:31.152Z,25.50
2022-10-05T15:51:39.802Z,25.50
2022-10-05T15:54:43.757Z,25.50
2022-10-05T15:57:40.830Z,25.50
2022-10-05T16:00:16.581Z,25.50
2022-10-05T16:03:13.708Z,25.50
2022-10-05T16:06:23.727Z,25.40
2022-10-05T16:09:32.414Z,25.40
2022-10-05T16:12:26.548Z,25.40
2022-10-05T16:15:35.158Z,25.40
2022-10-05T16:18:43.869Z,25.40
2022-10-05T16:21:45.653Z,25.40
2022-10-05T16:24:54.389Z,25.30
2022-10-05T16:28:05.551Z,25.40
2022-10-05T16:31:03.272Z,25.30
2022-10-05T16:34:08.239Z,25.30
2022-10-05T16:37:04.982Z,25.30
2022-10-05T16:40:14.143Z,25.30
2022-10-05T16:43:10.469Z,25.30
2022-10-05T16:46:19.101Z,25.20
2022-10-05T16:49:12.159Z,25.20
2022-10-05T16:52:02.179Z,25.20
2022-10-05T16:54:54.443Z,25.20
2022-10-05T16:57:36.794Z,25.20
2022-10-05T17:00:45.585Z,25.20
2022-10-05T17:03:41.675Z,25.10
2022-10-05T17:06:50.455Z,25.20
2022-10-05T17:09:37.910Z,25.20
2022-10-05T17:12:47.373Z,25.20
2022-10-05T17:15:51.061Z,25.20
2022-10-05T17:18:31.001Z,25.10
2022-10-05T17:21:27.101Z,25.10
2022-10-05T17:24:18.594Z,25.10
2022-10-05T17:27:04.509Z,25.10
2022-10-05T17:29:55.184Z,25.10
2022-10-05T17:32:41.757Z,25.10
2022-10-05T17:35:20.923Z,25.10
2022-10-05T17:38:29.595Z,25.10
2022-10-05T17:41:25.272Z,25.10
2022-10-05T17:44:22.510Z,25.10
2022-10-05T17:46:58.454Z,25.10
2022-10-05T17:50:22.873Z,25.10
2022-10-05T17:53:42.646Z,25.00
2022-10-05T17:56:12.300Z,25.00
2022-10-05T17:59:02.802Z,25.00
2022-10-05T18:01:44.298Z,25.00
2022-10-05T18:04:32.141Z,25.00
2022-10-05T18:07:06.484Z,25.00
2022-10-05T18:09:39.276Z,25.00
2022-10-05T18:12:40.403Z,25.00
2022-10-05T18:15:39.032Z,24.90
2022-10-05T18:18:37.015Z,24.90
2022-10-05T18:21:29.884Z,24.90
2022-10-05T18:24:09.560Z,24.80
2022-10-05T18:27:08.919Z,24.90
2022-10-05T18:30:06.866Z,24.80
2022-10-05T18:33:15.782Z,24.80
2022-10-05T18:36:11.679Z,24.80
2022-10-05T18:39:05.333Z,24.80
2022-10-05T18:42:01.762Z,24.80
2022-10-05T18:44:42.448Z,24.80
2022-10-05T18:47:44.651Z,24.80
2022-10-05T18:50:54.421Z,24.80
2022-10-05T18:53:45.941Z,24.80
2022-10-05T18:56:27.986Z,24.80
2022-10-05T18:59:27.593Z,24.80
2022-10-05T19:02:21.555Z,24.80
2022-10-05T19:05:47.115Z,24.80
2022-10-05T19:08:35.413Z,24.70
2022-10-05T19:11:29.379Z,24.70
2022-10-05T19:14:26.435Z,24.80
2022-10-05T19:17:27.395Z,24.70
2022-10-05T19:20:31.864Z,24.70
2022-10-05T19:23:38.144Z,24.70
2022-10-05T19:26:40.183Z,24.70
2022-10-05T19:29:39.166Z,24.70
2022-10-05T19:32:39.160Z,24.70
2022-10-05T19:35:24.155Z,24.70
2022-10-05T19:38:26.750Z,24.60
2022-10-05T19:41:36.707Z,24.60
2022-10-05T19:44:45.965Z,24.60
2022-10-05T19:47:41.348Z,24.60
2022-10-05T19:50:34.434Z,24.60
2022-10-05T19:53:15.774Z,24.60
2022-10-05T19:55:48.687Z,24.60
2022-10-05T19:58:33.072Z,24.60
2022-10-05T20:01:05.930Z,24.60
2022-10-05T20:03:39.567Z,24.60
2022-10-05T20:06:12.227Z,24.50
2022-10-05T20:08:47.877Z,24.50
2022-10-05T20:11:20.131Z,24.50
2022-10-05T20:14:28.884Z,24.50
2022-10-05T20:17:57.466Z,24.50
2022-10-05T20:20:48.644Z,24.50
2022-10-05T20:23:27.079Z,24.50
2022-10-05T20:26:16.336Z,24.50
2022-10-05T20:28:46.050Z,24.50
2022-10-05T20:31:16.141Z,24.50
2022-10-05T20:33:45.689Z,24.50
2022-10-05T20:36:15.254Z,24.40
2022-10-05T20:38:45.388Z,24.40
2022-10-05T20:41:15.011Z,24.50
2022-10-05T20:43:45.021Z,24.50
2022-10-05T20:46:14.524Z,24.40
2022-10-05T20:48:44.067Z,24.40
2022-10-05T20:51:14.445Z,24.40
2022-10-05T20:53:44.263Z,24.40
2022-10-05T20:56:13.989Z,24.40
2022-10-05T20:58:45.878Z,24.40
2022-10-05T21:01:20.595Z,24.40
2022-10-05T21:03:50.377Z,24.40
2022-10-05T21:06:20.345Z,24.40
2022-10-05T21:08:52.470Z,24.40
2022-10-05T21:11:22.078Z,24.40
2022-10-05T21:13:52.794Z,24.40
2022-10-05T21:16:22.833Z,24.40
2022-10-05T21:18:53.431Z,24.40
2022-10-05T21:21:23.420Z,24.30
2022-10-05T21:23:52.947Z,24.40
2022-10-05T21:26:22.471Z,24.40
2022-10-05T21:28:52.148Z,24.40
2022-10-05T21:31:21.785Z,24.40
2022-10-05T21:33:51.396Z,24.30
2022-10-05T21:36:24.546Z,24.40
2022-10-05T21:38:56.056Z,24.30
2022-10-05T21:41:25.897Z,24.40
2022-10-05T21:43:55.494Z,24.30
2022-10-05T21:46:28.323Z,24.40
2022-10-05T21:48:58.138Z,24.30
2022-10-05T21:51:29.311Z,24.30
2022-10-05T21:54:08.813Z,24.30
2022-10-05T21:56:42.276Z,24.40
2022-10-05T21:59:13.986Z,24.40
2022-10-05T22:01:43.557Z,24.30
2022-10-05T22:04:13.177Z,24.40
2022-10-05T22:06:43.007Z,24.40
2022-10-05T22:09:12.599Z,24.40
2022-10-05T22:11:42.231Z,24.40
2022-10-05T22:14:12.203Z,24.40
2022-10-05T22:16:42.128Z,24.40
2022-10-05T22:19:18.810Z,24.30
2022-10-05T22:21:48.737Z,24.30
2022-10-05T22:24:18.314Z,24.30
2022-10-05T22:26:50.677Z,24.40
2022-10-05T22:29:20.747Z,24.30
2022-10-05T22:31:50.845Z,24.30
2022-10-05T22:34:20.660Z,24.30
2022-10-05T22:36:50.381Z,24.20
2022-10-05T22:39:20.558Z,24.10
2022-10-05T22:41:50.599Z,24.10
2022-10-05T22:44:20.206Z,24.00
2022-10-05T22:46:49.739Z,24.00
2022-10-05T22:49:19.327Z,24.00
2022-10-05T22:51:50.885Z,24.00
2022-10-05T22:54:20.868Z,24.00
2022-10-05T22:56:50.386Z,24.00
2022-10-05T22:59:19.912Z,24.00
2022-10-05T23:01:49.619Z,24.00
2022-10-05T23:04:19.261Z,24.10
2022-10-05T23:06:49.536Z,24.10
2022-10-05T23:09:19.210Z,24.20
2022-10-05T23:11:53.559Z,24.20
2022-10-05T23:14:23.754Z,24.20
2022-10-05T23:16:53.514Z,24.10
2022-10-05T23:19:25.190Z,24.20
2022-10-05T23:21:54.848Z,24.20
2022-10-05T23:24:24.426Z,24.20
2022-10-05T23:26:53.939Z,24.20
2022-10-05T23:29:23.632Z,24.20
2022-10-05T23:31:53.266Z,24.30
2022-10-05T23:34:22.765Z,24.30
2022-10-05T23:36:52.360Z,24.30
2022-10-05T23:39:21.955Z,24.30
2022-10-05T23:41:51.527Z,24.30
2022-10-05T23:44:21.837Z,24.30
2022-10-05T23:46:51.496Z,24.30
2022-10-05T23:49:21.066Z,24.40
2022-10-05T23:51:51.564Z,24.40
2022-10-05T23:54:21.088Z,24.40
2022-10-05T23:56:50.713Z,24.40
2022-10-05T23:59:20.402Z,24.40
